Time;durP1;ratioP1;P1;durP2;ratioP2;P2;SDS_P1;SDS_P2;PMS_P1;PMS_P2;Temp;Humidity;BMP_temperature;BMP_pressure;BME280_temperature;BME280_humidity;BME280_pressure;Samples;Min_cycle;Max_cycle;Signal;HPM_P1;HPM_P2
2022/05/27 00:01:09;;;;;;;10.05;6.25;;;;;;;;;;5041969;28;20026;-54
2022/05/27 00:03:35;;;;;;;9.68;6.68;;;;;;;;;;5044505;28;20093;-56
2022/05/27 00:06:01;;;;;;;13.80;6.82;;;;;;;;;;5051417;28;20112;-55
2022/05/27 00:08:28;;;;;;;9.48;6.30;;;;;;;;;;5043367;28;20048;-56
2022/05/27 00:10:55;;;;;;;10.77;7.05;;;;;;;;;;5044393;28;20029;-55
2022/05/27 00:13:21;;;;;;;11.27;6.82;;;;;;;;;;5051450;28;20427;-55
2022/05/27 00:15:46;;;;;;;13.75;7.10;;;;;;;;;;5050822;28;20036;-56
2022/05/27 00:18:12;;;;;;;10.93;6.57;;;;;;;;;;5040175;28;20112;-52
2022/05/27 00:20:38;;;;;;;10.65;6.60;;;;;;;;;;5050611;28;20025;-55
2022/05/27 00:23:05;;;;;;;12.35;7.18;;;;;;;;;;5048068;28;20108;-54
2022/05/27 00:25:31;;;;;;;9.60;6.18;;;;;;;;;;5051077;28;20035;-54
2022/05/27 00:27:57;;;;;;;10.57;6.20;;;;;;;;;;5051149;28;20013;-52
2022/05/27 00:30:23;;;;;;;8.77;5.82;;;;;;;;;;5050342;28;20024;-56
2022/05/27 00:32:49;;;;;;;9.10;6.00;;;;;;;;;;5036877;28;20124;-55
2022/05/27 00:35:15;;;;;;;10.82;6.43;;;;;;;;;;5046695;28;20104;-55
2022/05/27 00:37:41;;;;;;;11.52;6.32;;;;;;;;;;5045606;28;20106;-55
2022/05/27 00:40:08;;;;;;;10.93;5.93;;;;;;;;;;5046308;28;20523;-54
2022/05/27 00:42:34;;;;;;;8.88;6.47;;;;;;;;;;5051022;28;20379;-56
2022/05/27 00:45:01;;;;;;;9.32;6.10;;;;;;;;;;5050493;28;20025;-55
2022/05/27 00:47:30;;;;;;;14.38;7.07;;;;;;;;;;5050352;28;20392;-56
2022/05/27 00:49:57;;;;;;;14.13;6.88;;;;;;;;;;5041998;28;20085;-53
2022/05/27 00:52:25;;;;;;;9.50;6.47;;;;;;;;;;5046879;28;20029;-56
2022/05/27 00:54:52;;;;;;;10.13;6.63;;;;;;;;;;5050813;28;20031;-55
2022/05/27 00:57:28;;;;;;;12.80;7.32;;;;;;;;;;5049386;28;20443;-56
2022/05/27 00:59:59;;;;;;;11.40;7.75;;;;;;;;;;5050437;28;20044;-56
2022/05/27 01:02:25;;;;;;;12.02;8.25;;;;;;;;;;5050718;28;20096;-54
2022/05/27 01:04:52;;;;;;;13.00;8.32;;;;;;;;;;5048184;28;20396;-56
2022/05/27 01:07:18;;;;;;;12.93;8.77;;;;;;;;;;5041247;28;20120;-55
2022/05/27 01:09:46;;;;;;;13.57;8.18;;;;;;;;;;5047888;28;20167;-55
2022/05/27 01:12:26;;;;;;;13.50;8.38;;;;;;;;;;5050357;28;20040;-55
2022/05/27 01:14:52;;;;;;;14.23;8.25;;;;;;;;;;5042540;28;20025;-55
2022/05/27 01:17:25;;;;;;;12.48;8.82;;;;;;;;;;5050437;28;20017;-55
2022/05/27 01:20:21;;;;;;;12.63;8.85;;;;;;;;;;5048223;28;20033;-54
2022/05/27 01:22:47;;;;;;;14.55;9.27;;;;;;;;;;5020364;28;20025;-55
2022/05/27 01:25:13;;;;;;;14.15;8.95;;;;;;;;;;5050736;28;20513;-56
2022/05/27 01:27:58;;;;;;;15.63;9.35;;;;;;;;;;5050639;28;20032;-52
2022/05/27 01:30:34;;;;;;;12.90;9.10;;;;;;;;;;5050003;28;20082;-54
2022/05/27 01:33:11;;;;;;;14.90;9.20;;;;;;;;;;5050253;28;20025;-56
2022/05/27 01:35:41;;;;;;;14.55;9.60;;;;;;;;;;5041596;28;20033;-54
2022/05/27 01:38:12;;;;;;;18.63;9.27;;;;;;;;;;5041779;28;20044;-55
2022/05/27 01:40:41;;;;;;;11.55;7.90;;;;;;;;;;5048755;28;20053;-53
2022/05/27 01:43:19;;;;;;;15.35;9.35;;;;;;;;;;5050400;28;20029;-56
2022/05/27 01:45:50;;;;;;;15.85;9.52;;;;;;;;;;5037103;28;20033;-53
2022/05/27 01:48:36;;;;;;;12.43;8.68;;;;;;;;;;5050122;28;20032;-53
2022/05/27 01:51:02;;;;;;;15.40;9.95;;;;;;;;;;5043186;28;20537;-55
2022/05/27 01:53:48;;;;;;;16.30;9.85;;;;;;;;;;5034756;28;20032;-54
2022/05/27 01:56:20;;;;;;;13.00;9.07;;;;;;;;;;5050227;28;20448;-55
2022/05/27 01:58:48;;;;;;;15.88;9.77;;;;;;;;;;5034969;28;20148;-56
2022/05/27 02:01:16;;;;;;;16.13;9.82;;;;;;;;;;5053615;28;20025;-54
2022/05/27 02:03:48;;;;;;;15.88;9.18;;;;;;;;;;5054028;28;20036;-56
2022/05/27 02:06:40;;;;;;;15.73;9.85;;;;;;;;;;5053217;28;20031;-54
2022/05/27 02:09:14;;;;;;;14.75;10.73;;;;;;;;;;5039507;28;20060;-55
2022/05/27 02:11:42;;;;;;;16.48;10.45;;;;;;;;;;5053229;28;20029;-55
2022/05/27 02:14:11;;;;;;;15.82;9.32;;;;;;;;;;5053726;28;20109;-54
2022/05/27 02:16:39;;;;;;;13.68;8.77;;;;;;;;;;5053375;28;20033;-52
2022/05/27 02:19:11;;;;;;;22.77;8.68;;;;;;;;;;5053937;28;20468;-54
2022/05/27 02:21:52;;;;;;;13.98;8.60;;;;;;;;;;5046152;28;20392;-55
2022/05/27 02:24:36;;;;;;;16.77;7.85;;;;;;;;;;5043741;28;20021;-56
2022/05/27 02:27:04;;;;;;;14.48;8.13;;;;;;;;;;5030848;28;20034;-55
2022/05/27 02:29:30;;;;;;;9.32;6.50;;;;;;;;;;5052872;28;20028;-54
2022/05/27 02:32:01;;;;;;;10.88;7.05;;;;;;;;;;5052461;28;20495;-56
2022/05/27 02:37:24;;;;;;;11.38;6.28;;;;;;;;;;5046693;28;20511;-54
2022/05/27 02:39:50;;;;;;;8.77;6.18;;;;;;;;;;5046646;28;20516;-55
2022/05/27 02:42:20;;;;;;;10.50;6.90;;;;;;;;;;5053317;28;20021;-56
2022/05/27 02:44:52;;;;;;;10.75;7.15;;;;;;;;;;5046613;28;20033;-56
2022/05/27 02:47:37;;;;;;;11.10;6.18;;;;;;;;;;5052899;28;20033;-55
2022/05/27 02:50:03;;;;;;;11.57;7.13;;;;;;;;;;5045583;28;20021;-56
2022/05/27 02:52:51;;;;;;;12.15;6.72;;;;;;;;;;5048985;28;20486;-56
2022/05/27 02:55:19;;;;;;;9.35;6.20;;;;;;;;;;5031845;28;20476;-56
2022/05/27 02:57:47;;;;;;;9.65;7.07;;;;;;;;;;5040953;28;20021;-55
2022/05/27 03:00:21;;;;;;;10.93;7.03;;;;;;;;;;5052507;28;20025;-54
2022/05/27 03:02:47;;;;;;;11.20;7.88;;;;;;;;;;5052810;28;20033;-56
2022/05/27 03:05:15;;;;;;;13.70;7.70;;;;;;;;;;5052527;28;20021;-55
2022/05/27 03:07:56;;;;;;;12.55;7.07;;;;;;;;;;5046566;28;20051;-55
2022/05/27 03:10:41;;;;;;;12.52;7.90;;;;;;;;;;5051967;28;20404;-56
2022/05/27 03:13:18;;;;;;;13.30;7.80;;;;;;;;;;5034677;28;20048;-56
2022/05/27 03:15:53;;;;;;;10.15;7.75;;;;;;;;;;5052757;28;20381;-56
2022/05/27 03:18:30;;;;;;;11.25;8.00;;;;;;;;;;5052335;28;20029;-55
2022/05/27 03:21:09;;;;;;;12.43;8.38;;;;;;;;;;5036776;28;20039;-56
2022/05/27 03:23:35;;;;;;;12.55;8.82;;;;;;;;;;5044402;28;20045;-55
2022/05/27 03:26:05;;;;;;;12.90;8.40;;;;;;;;;;5044927;28;20095;-54
2022/05/27 03:28:39;;;;;;;13.00;7.65;;;;;;;;;;5051235;28;20043;-56
2022/05/27 03:31:05;;;;;;;;;;;;;;;;;;5052288;28;20481;-55
2022/05/27 03:33:36;;;;;;;11.20;8.38;;;;;;;;;;5052210;28;19941;-55
2022/05/27 03:36:08;;;;;;;13.38;8.50;;;;;;;;;;5050335;28;20122;-55
2022/05/27 03:38:40;;;;;;;12.82;8.15;;;;;;;;;;5051790;28;20025;-56
2022/05/27 03:41:12;;;;;;;13.43;8.25;;;;;;;;;;5051666;28;20159;-57
2022/05/27 03:43:38;;;;;;;11.38;7.82;;;;;;;;;;5051832;28;20383;-55
2022/05/27 03:46:04;;;;;;;13.05;7.72;;;;;;;;;;5051728;28;20029;-56
2022/05/27 03:48:31;;;;;;;11.68;7.65;;;;;;;;;;5049111;28;20033;-55
2022/05/27 03:50:59;;;;;;;11.15;8.00;;;;;;;;;;5044290;28;20423;-55
2022/05/27 03:56:10;;;;;;;13.25;7.50;;;;;;;;;;5039453;28;20411;-55
2022/05/27 03:58:36;;;;;;;9.88;7.45;;;;;;;;;;5051417;28;20029;-56
2022/05/27 04:01:02;;;;;;;10.25;6.72;;;;;;;;;;5051413;28;20465;-56
2022/05/27 04:03:28;;;;;;;12.07;7.85;;;;;;;;;;5051627;28;20028;-53
2022/05/27 04:05:54;;;;;;;10.00;7.22;;;;;;;;;;5047856;28;20025;-56
2022/05/27 04:08:20;;;;;;;11.90;7.65;;;;;;;;;;5051133;28;20049;-55
2022/05/27 04:10:46;;;;;;;10.05;7.57;;;;;;;;;;5051250;28;20033;-56
2022/05/27 04:13:12;;;;;;;14.50;7.18;;;;;;;;;;5051332;28;20025;-55
2022/05/27 04:15:38;;;;;;;10.65;7.85;;;;;;;;;;5051379;28;20107;-55
2022/05/27 04:18:04;;;;;;;12.85;6.70;;;;;;;;;;5051314;28;20373;-55
2022/05/27 04:20:30;;;;;;;11.18;7.07;;;;;;;;;;5037965;28;20041;-56
2022/05/27 04:22:56;;;;;;;10.70;6.97;;;;;;;;;;5040249;28;20028;-56
2022/05/27 04:25:23;;;;;;;9.98;6.60;;;;;;;;;;5045615;28;20029;-55
2022/05/27 04:27:49;;;;;;;11.07;7.47;;;;;;;;;;5045654;28;20074;-55
2022/05/27 04:30:15;;;;;;;10.55;7.30;;;;;;;;;;5050820;28;20037;-54
2022/05/27 04:32:42;;;;;;;11.20;7.25;;;;;;;;;;5049896;28;20457;-56
2022/05/27 04:35:08;;;;;;;9.77;7.30;;;;;;;;;;5041924;28;20469;-55
2022/05/27 04:37:34;;;;;;;10.80;7.40;;;;;;;;;;5045873;28;20399;-57
2022/05/27 04:40:00;;;;;;;16.15;7.20;;;;;;;;;;5043375;28;20051;-55
2022/05/27 04:42:27;;;;;;;12.02;7.32;;;;;;;;;;5050602;28;20534;-55
2022/05/27 04:44:53;;;;;;;12.85;6.57;;;;;;;;;;5037449;28;20044;-56
2022/05/27 04:47:19;;;;;;;10.57;6.80;;;;;;;;;;5033747;28;20029;-56
2022/05/27 04:49:51;;;;;;;9.05;6.47;;;;;;;;;;5048499;28;20018;-55
2022/05/27 04:52:17;;;;;;;10.73;6.43;;;;;;;;;;5050482;28;20600;-56
2022/05/27 04:54:43;;;;;;;10.02;6.53;;;;;;;;;;5035930;28;20552;-55
2022/05/27 04:57:12;;;;;;;12.95;6.40;;;;;;;;;;5030118;28;20108;-55
2022/05/27 04:59:39;;;;;;;15.55;6.68;;;;;;;;;;5050410;28;20039;-54
2022/05/27 05:02:05;;;;;;;9.57;6.03;;;;;;;;;;5049665;28;20033;-55
2022/05/27 05:04:31;;;;;;;18.80;7.82;;;;;;;;;;5050377;28;20518;-54
2022/05/27 05:07:06;;;;;;;8.43;6.47;;;;;;;;;;5042957;28;20052;-55
2022/05/27 05:09:32;;;;;;;9.82;6.65;;;;;;;;;;5038138;28;20029;-56
2022/05/27 05:11:58;;;;;;;12.00;6.47;;;;;;;;;;5043392;28;20400;-55
2022/05/27 05:14:24;;;;;;;10.55;6.78;;;;;;;;;;5050352;28;20484;-55
2022/05/27 05:16:51;;;;;;;13.77;7.00;;;;;;;;;;5043001;28;20029;-55
2022/05/27 05:19:17;;;;;;;10.43;6.78;;;;;;;;;;5040547;28;20033;-56
2022/05/27 05:21:43;;;;;;;19.23;7.40;;;;;;;;;;5049909;28;20040;-55
2022/05/27 05:24:09;;;;;;;12.73;6.95;;;;;;;;;;5047659;28;20100;-54
2022/05/27 05:26:35;;;;;;;12.02;6.72;;;;;;;;;;5050124;28;20388;-55
2022/05/27 05:29:00;;;;;;;9.07;5.93;;;;;;;;;;5048871;28;20074;-56
2022/05/27 05:31:26;;;;;;;11.27;5.72;;;;;;;;;;5049604;28;20033;-55
2022/05/27 05:33:58;;;;;;;7.20;5.30;;;;;;;;;;5043314;28;20027;-55
2022/05/27 05:36:24;;;;;;;10.55;5.45;;;;;;;;;;5055575;28;20075;-54
2022/05/27 05:38:50;;;;;;;9.48;5.05;;;;;;;;;;5052304;28;20037;-56
2022/05/27 05:41:26;;;;;;;10.05;4.53;;;;;;;;;;5041978;28;20061;-56
2022/05/27 05:43:52;;;;;;;11.38;4.95;;;;;;;;;;5054556;28;20044;-56
2022/05/27 05:46:18;;;;;;;8.73;5.00;;;;;;;;;;5035037;28;20022;-56
2022/05/27 05:48:44;;;;;;;5.38;4.05;;;;;;;;;;5048347;28;20435;-56
2022/05/27 05:51:10;;;;;;;6.40;4.78;;;;;;;;;;5042894;28;20025;-55
2022/05/27 05:53:36;;;;;;;6.75;4.75;;;;;;;;;;5047354;28;20035;-53
2022/05/27 05:56:02;;;;;;;7.05;4.93;;;;;;;;;;5038788;28;20037;-54
2022/05/27 05:58:28;;;;;;;13.95;4.40;;;;;;;;;;5036863;28;20037;-54
2022/05/27 06:00:53;;;;;;;8.00;3.88;;;;;;;;;;5029624;28;20033;-55
2022/05/27 06:03:19;;;;;;;6.85;2.85;;;;;;;;;;5027490;28;20021;-56
2022/05/27 06:05:47;;;;;;;5.45;2.15;;;;;;;;;;5025544;28;20044;-54
2022/05/27 06:08:14;;;;;;;8.73;2.17;;;;;;;;;;5044330;28;20045;-56
2022/05/27 06:10:40;;;;;;;7.38;2.03;;;;;;;;;;5046866;28;20865;-56
2022/05/27 06:13:06;;;;;;;5.13;1.75;;;;;;;;;;5044534;28;20022;-56
2022/05/27 06:15:32;;;;;;;3.67;1.73;;;;;;;;;;5050110;28;20451;-56
2022/05/27 06:17:59;;;;;;;4.90;2.28;;;;;;;;;;5044011;28;20052;-55
2022/05/27 06:20:26;;;;;;;7.88;2.53;;;;;;;;;;5032086;28;20018;-55
2022/05/27 06:22:52;;;;;;;4.32;1.98;;;;;;;;;;5043768;28;20025;-56
2022/05/27 06:25:18;;;;;;;3.88;1.80;;;;;;;;;;5040449;28;20050;-56
2022/05/27 06:27:44;;;;;;;7.15;1.90;;;;;;;;;;5043160;28;20104;-56
2022/05/27 06:35:24;;;;;;;3.67;1.55;;;;;;;;;;5049781;28;20032;-56
2022/05/27 06:37:50;;;;;;;2.38;1.40;;;;;;;;;;5043382;28;20037;-56
2022/05/27 06:40:16;;;;;;;4.07;1.60;;;;;;;;;;5041161;28;20028;-56
2022/05/27 06:42:42;;;;;;;4.55;1.48;;;;;;;;;;5047806;28;20495;-55
2022/05/27 06:45:11;;;;;;;4.80;1.30;;;;;;;;;;5038421;28;20401;-55
2022/05/27 06:47:38;;;;;;;3.72;1.20;;;;;;;;;;5047091;28;20476;-55
2022/05/27 06:50:04;;;;;;;2.15;1.48;;;;;;;;;;5040122;28;20472;-56
2022/05/27 06:52:30;;;;;;;7.93;1.83;;;;;;;;;;5024592;28;20039;-56
2022/05/27 06:54:56;;;;;;;4.97;1.42;;;;;;;;;;5028053;28;20415;-55
2022/05/27 06:57:22;;;;;;;4.47;1.30;;;;;;;;;;5035251;28;20037;-53
2022/05/27 06:59:48;;;;;;;3.83;1.48;;;;;;;;;;5043172;28;20032;-56
2022/05/27 07:02:14;;;;;;;4.32;1.77;;;;;;;;;;5016431;28;20044;-56
2022/05/27 07:04:40;;;;;;;6.95;1.50;;;;;;;;;;5041254;28;20108;-55
2022/05/27 07:07:06;;;;;;;3.40;1.35;;;;;;;;;;5040540;28;20053;-56
2022/05/27 07:09:35;;;;;;;4.82;1.70;;;;;;;;;;5047903;28;20037;-56
2022/05/27 07:12:02;;;;;;;5.70;1.55;;;;;;;;;;5045185;28;20416;-56
2022/05/27 07:14:28;;;;;;;4.63;1.33;;;;;;;;;;5043777;28;20025;-55
2022/05/27 07:16:54;;;;;;;4.15;1.23;;;;;;;;;;5034618;28;20350;-56
2022/05/27 07:19:20;;;;;;;3.15;1.65;;;;;;;;;;5034334;28;20029;-56
2022/05/27 07:21:47;;;;;;;6.90;1.60;;;;;;;;;;5044617;28;20384;-56
2022/05/27 07:24:14;;;;;;;4.57;1.40;;;;;;;;;;5045319;28;20416;-57
2022/05/27 07:26:41;;;;;;;3.78;1.38;;;;;;;;;;5042241;28;20445;-53
2022/05/27 07:29:07;;;;;;;11.60;2.55;;;;;;;;;;5018871;28;20033;-53
2022/05/27 07:31:35;;;;;;;10.18;1.70;;;;;;;;;;5044122;28;20538;-56
2022/05/27 07:34:01;;;;;;;5.70;1.58;;;;;;;;;;5032572;28;20027;-56
2022/05/27 07:36:27;;;;;;;5.55;1.58;;;;;;;;;;5044944;28;20071;-57
2022/05/27 07:38:53;;;;;;;5.60;1.60;;;;;;;;;;5036196;28;20460;-54
2022/05/27 07:41:20;;;;;;;4.72;1.15;;;;;;;;;;5047557;28;20067;-57
2022/05/27 07:43:46;;;;;;;3.65;1.10;;;;;;;;;;5037679;28;20099;-55
2022/05/27 07:46:13;;;;;;;4.18;0.95;;;;;;;;;;5046375;28;20033;-56
2022/05/27 07:48:39;;;;;;;5.63;1.52;;;;;;;;;;5050278;28;20035;-55
2022/05/27 07:51:05;;;;;;;5.43;1.23;;;;;;;;;;5046923;28;20096;-55
2022/05/27 07:53:32;;;;;;;4.55;1.25;;;;;;;;;;5037503;28;20461;-56
2022/05/27 07:55:58;;;;;;;5.57;1.52;;;;;;;;;;5042189;28;20594;-56
2022/05/27 07:58:24;;;;;;;5.38;1.35;;;;;;;;;;5044271;28;20021;-56
2022/05/27 08:00:50;;;;;;;4.05;1.00;;;;;;;;;;5038531;28;20061;-54
2022/05/27 08:03:18;;;;;;;6.88;1.08;;;;;;;;;;5033382;28;20473;-56
2022/05/27 08:05:44;;;;;;;6.20;1.20;;;;;;;;;;5043044;28;20108;-54
2022/05/27 08:08:11;;;;;;;4.93;1.20;;;;;;;;;;5046400;28;20432;-55
2022/05/27 08:10:37;;;;;;;3.70;1.05;;;;;;;;;;5044240;28;20473;-53
2022/05/27 08:13:04;;;;;;;5.78;1.73;;;;;;;;;;5048060;28;20118;-55
2022/05/27 08:15:30;;;;;;;3.50;0.93;;;;;;;;;;5045254;28;20430;-55
2022/05/27 08:17:56;;;;;;;5.38;1.05;;;;;;;;;;5023006;28;20029;-54
2022/05/27 08:20:24;;;;;;;5.10;1.10;;;;;;;;;;5042403;28;20022;-54
2022/05/27 08:22:50;;;;;;;4.60;1.38;;;;;;;;;;5044529;28;20115;-52
2022/05/27 08:25:17;;;;;;;5.38;1.30;;;;;;;;;;5045487;28;20245;-53
2022/05/27 08:27:43;;;;;;;4.20;1.33;;;;;;;;;;5033492;28;20082;-54
2022/05/27 08:30:10;;;;;;;5.05;1.20;;;;;;;;;;5047678;28;20033;-54
2022/05/27 08:32:37;;;;;;;6.40;1.10;;;;;;;;;;5043603;28;20444;-53
2022/05/27 08:40:51;;;;;;;6.22;1.00;;;;;;;;;;5039510;28;20036;-52
2022/05/27 08:43:18;;;;;;;3.75;0.77;;;;;;;;;;5038360;28;20029;-55
2022/05/27 08:46:02;;;;;;;3.13;1.10;;;;;;;;;;5043185;28;20031;-54
2022/05/27 08:48:32;;;;;;;5.38;1.27;;;;;;;;;;5042667;28;20023;-51
2022/05/27 08:51:04;;;;;;;7.35;1.42;;;;;;;;;;5038022;28;20037;-55
2022/05/27 08:53:51;;;;;;;2.85;1.35;;;;;;;;;;5027916;28;20021;-53
2022/05/27 08:59:36;;;;;;;3.97;1.10;;;;;;;;;;5034880;28;20179;-50
2022/05/27 09:02:02;;;;;;;4.03;1.00;;;;;;;;;;5038831;28;20108;-54
2022/05/27 09:04:33;;;;;;;4.93;1.00;;;;;;;;;;5045096;28;20128;-53
2022/05/27 09:07:06;;;;;;;3.78;1.10;;;;;;;;;;5033557;28;20126;-51
2022/05/27 09:09:32;;;;;;;5.25;1.13;;;;;;;;;;5036394;28;20090;-52
2022/05/27 09:12:01;;;;;;;7.15;1.48;;;;;;;;;;5046647;28;20112;-52
2022/05/27 09:14:31;;;;;;;4.82;1.15;;;;;;;;;;5041478;28;20026;-55
2022/05/27 09:17:00;;;;;;;3.20;1.13;;;;;;;;;;5049841;28;20759;-54
2022/05/27 09:19:33;;;;;;;3.67;1.30;;;;;;;;;;5049339;28;20460;-54
2022/05/27 09:21:59;;;;;;;;;;;;;;;;;;5054920;28;20094;-52
2022/05/27 09:24:25;;;;;;;4.80;0.90;;;;;;;;;;5048416;28;19909;-50
2022/05/27 09:26:52;;;;;;;4.75;1.42;;;;;;;;;;5036453;28;20040;-53
2022/05/27 09:29:36;;;;;;;11.57;1.00;;;;;;;;;;5042924;28;20557;-53
2022/05/27 09:32:06;;;;;;;6.80;1.27;;;;;;;;;;5048816;28;20026;-53
2022/05/27 09:34:33;;;;;;;2.22;0.85;;;;;;;;;;5055396;28;20029;-54
2022/05/27 09:37:00;;;;;;;8.00;1.50;;;;;;;;;;5053238;28;20430;-55
2022/05/27 09:39:26;;;;;;;6.32;1.20;;;;;;;;;;5040563;28;20091;-53
2022/05/27 09:41:55;;;;;;;6.28;1.10;;;;;;;;;;5044723;28;20028;-55
2022/05/27 09:44:27;;;;;;;5.03;1.33;;;;;;;;;;5049151;28;20026;-52
2022/05/27 09:46:53;;;;;;;2.92;1.13;;;;;;;;;;5048323;28;20036;-54
2022/05/27 09:49:19;;;;;;;9.18;1.15;;;;;;;;;;5052141;28;20019;-51
2022/05/27 09:51:45;;;;;;;5.57;1.58;;;;;;;;;;5044375;28;20029;-51
2022/05/27 09:54:21;;;;;;;5.45;1.55;;;;;;;;;;5054171;28;20039;-53
2022/05/27 09:57:02;;;;;;;6.55;1.00;;;;;;;;;;5047395;28;20021;-54
2022/05/27 09:59:35;;;;;;;7.60;1.05;;;;;;;;;;5038729;28;20040;-55
2022/05/27 10:02:21;;;;;;;7.10;1.30;;;;;;;;;;5051260;28;20052;-53
2022/05/27 10:04:51;;;;;;;5.18;1.38;;;;;;;;;;5044481;28;20064;-51
2022/05/27 10:07:24;;;;;;;3.85;1.30;;;;;;;;;;5043477;28;20127;-54
2022/05/27 10:09:50;;;;;;;;;;;;;;;;;;5053558;28;20422;-51
2022/05/27 10:12:28;;;;;;;4.35;0.82;;;;;;;;;;5054405;28;19975;-53
2022/05/27 10:14:55;;;;;;;19.85;2.00;;;;;;;;;;5075081;28;20028;-52
2022/05/27 10:17:36;;;;;;;4.00;1.13;;;;;;;;;;5046039;28;20024;-54
2022/05/27 10:20:19;;;;;;;6.15;1.13;;;;;;;;;;5047194;28;20029;-51
2022/05/27 10:22:56;;;;;;;5.72;1.17;;;;;;;;;;5037793;28;20095;-51
2022/05/27 10:25:29;;;;;;;3.83;1.27;;;;;;;;;;5041084;28;20047;-53
2022/05/27 10:27:55;;;;;;;7.38;1.30;;;;;;;;;;5055436;28;20044;-53
2022/05/27 10:30:24;;;;;;;3.42;0.98;;;;;;;;;;5055621;28;20036;-52
2022/05/27 10:32:50;;;;;;;5.20;1.10;;;;;;;;;;5052642;28;20064;-53
2022/05/27 10:35:16;;;;;;;7.10;1.15;;;;;;;;;;5067686;28;20116;-55
2022/05/27 10:38:03;;;;;;;6.35;1.73;;;;;;;;;;5073123;28;20410;-54
2022/05/27 10:40:34;;;;;;;5.82;1.40;;;;;;;;;;5066188;28;20067;-53
2022/05/27 10:43:11;;;;;;;4.47;1.30;;;;;;;;;;5065732;28;20365;-54
2022/05/27 10:45:43;;;;;;;5.15;0.93;;;;;;;;;;5068700;28;20052;-52
2022/05/27 10:48:27;;;;;;;5.03;0.98;;;;;;;;;;5025401;28;20484;-52
2022/05/27 10:50:57;;;;;;;5.43;1.30;;;;;;;;;;5057658;28;20021;-51
2022/05/27 10:53:32;;;;;;;6.65;1.40;;;;;;;;;;5061988;28;20076;-55
2022/05/27 10:56:16;;;;;;;6.45;1.20;;;;;;;;;;5053003;28;20116;-51
2022/05/27 11:02:07;;;;;;;5.82;1.05;;;;;;;;;;5052632;28;20048;-53
2022/05/27 11:04:51;;;;;;;3.42;1.05;;;;;;;;;;5022709;28;20071;-51
2022/05/27 11:07:17;;;;;;;4.25;1.20;;;;;;;;;;5067055;28;20541;-53
2022/05/27 11:09:53;;;;;;;4.32;1.50;;;;;;;;;;5054407;28;20029;-54
2022/05/27 11:12:26;;;;;;;6.32;0.93;;;;;;;;;;5038102;28;20365;-51
2022/05/27 11:15:13;;;;;;;9.47;1.63;;;;;;;;;;5043228;28;20035;-53
2022/05/27 11:17:47;;;;;;;7.80;1.27;;;;;;;;;;5051776;28;20081;-51
2022/05/27 11:20:13;;;;;;;;;;;;;;;;;;5044481;28;20029;-53
2022/05/27 11:22:39;;;;;;;6.15;1.15;;;;;;;;;;5050607;28;19932;-54
2022/05/27 11:25:10;;;;;;;6.93;1.27;;;;;;;;;;5039050;28;20017;-54
2022/05/27 11:27:52;;;;;;;7.63;1.42;;;;;;;;;;5056119;28;20669;-54
2022/05/27 11:30:36;;;;;;;4.82;1.02;;;;;;;;;;5053868;28;20021;-54
2022/05/27 11:33:24;;;;;;;4.75;1.30;;;;;;;;;;5052384;28;20612;-51
2022/05/27 11:35:59;;;;;;;3.67;0.93;;;;;;;;;;5071768;28;20020;-53
2022/05/27 11:38:38;;;;;;;4.18;1.00;;;;;;;;;;5071538;28;20024;-54
2022/05/27 11:41:16;;;;;;;7.72;1.00;;;;;;;;;;5066903;28;20016;-54
2022/05/27 11:44:00;;;;;;;6.15;1.08;;;;;;;;;;5061724;28;20539;-53
2022/05/27 11:46:32;;;;;;;3.30;1.10;;;;;;;;;;5051658;28;20025;-52
2022/05/27 11:49:07;;;;;;;5.35;1.13;;;;;;;;;;5048222;28;20082;-54
2022/05/27 11:51:51;;;;;;;4.90;0.98;;;;;;;;;;5055832;28;20021;-54
2022/05/27 11:54:35;;;;;;;5.32;1.02;;;;;;;;;;5051155;28;20029;-51
2022/05/27 11:57:04;;;;;;;5.68;1.20;;;;;;;;;;5048929;28;20564;-55
2022/05/27 11:59:36;;;;;;;5.57;1.30;;;;;;;;;;5046707;28;20029;-51
2022/05/27 12:02:06;;;;;;;6.15;1.20;;;;;;;;;;5051124;28;20047;-55
2022/05/27 12:04:40;;;;;;;5.63;1.10;;;;;;;;;;5051426;28;20049;-51
2022/05/27 12:07:16;;;;;;;7.18;1.02;;;;;;;;;;5066049;28;20040;-53
2022/05/27 12:10:11;;;;;;;3.83;0.85;;;;;;;;;;5070077;28;20047;-55
2022/05/27 12:12:53;;;;;;;15.93;1.80;;;;;;;;;;5048073;28;20098;-55
2022/05/27 12:15:29;;;;;;;5.10;0.70;;;;;;;;;;5051597;28;20031;-55
2022/05/27 12:17:56;;;;;;;2.88;0.80;;;;;;;;;;5056066;28;20033;-55
2022/05/27 12:20:24;;;;;;;5.63;0.98;;;;;;;;;;5049017;28;20025;-52
2022/05/27 12:22:52;;;;;;;5.68;0.98;;;;;;;;;;5053866;28;20123;-54
2022/05/27 12:25:23;;;;;;;2.35;0.75;;;;;;;;;;5043743;28;20105;-54
2022/05/27 12:27:49;;;;;;;6.32;1.05;;;;;;;;;;5061779;28;20728;-54
2022/05/27 12:30:16;;;;;;;4.55;1.20;;;;;;;;;;5025524;28;20021;-52
2022/05/27 12:32:44;;;;;;;1.90;1.10;;;;;;;;;;5051242;28;20557;-55
2022/05/27 12:35:28;;;;;;;2.95;0.80;;;;;;;;;;5047387;28;20028;-53
2022/05/27 12:37:57;;;;;;;4.38;0.90;;;;;;;;;;5067443;28;20040;-53
2022/05/27 12:40:23;;;;;;;6.57;1.02;;;;;;;;;;5027945;28;20033;-51
2022/05/27 12:42:54;;;;;;;5.47;0.90;;;;;;;;;;5059403;28;20033;-51
2022/05/27 12:45:43;;;;;;;3.05;0.70;;;;;;;;;;5054235;28;20466;-53
2022/05/27 12:48:09;;;;;;;3.03;1.10;;;;;;;;;;5047604;28;20033;-55
2022/05/27 12:50:38;;;;;;;8.68;1.20;;;;;;;;;;5038521;28;20043;-55
2022/05/27 12:53:18;;;;;;;8.82;1.13;;;;;;;;;;5058477;28;20718;-54
2022/05/27 13:01:22;;;;;;;5.07;0.82;;;;;;;;;;5046787;28;20036;-55
2022/05/27 13:03:50;;;;;;;4.88;1.05;;;;;;;;;;5037827;28;20078;-55
2022/05/27 13:06:33;;;;;;;8.98;1.20;;;;;;;;;;5042616;28;20056;-56
2022/05/27 13:09:02;;;;;;;3.38;1.00;;;;;;;;;;5042412;28;20076;-54
2022/05/27 13:11:35;;;;;;;3.47;0.57;;;;;;;;;;5040459;28;20079;-56
2022/05/27 13:14:04;;;;;;;11.25;1.35;;;;;;;;;;5045265;28;20025;-55
2022/05/27 13:16:42;;;;;;;3.75;1.10;;;;;;;;;;5047995;28;20484;-55
2022/05/27 13:19:28;;;;;;;2.72;0.70;;;;;;;;;;5047473;28;20025;-54
2022/05/27 13:21:55;;;;;;;6.38;1.33;;;;;;;;;;5044899;28;20033;-55
2022/05/27 13:24:21;;;;;;;1.83;0.50;;;;;;;;;;5048305;28;20445;-54
2022/05/27 13:26:55;;;;;;;6.78;0.80;;;;;;;;;;5048716;28;20036;-54
2022/05/27 13:29:33;;;;;;;9.57;1.20;;;;;;;;;;5047669;28;20032;-53
2022/05/27 13:32:01;;;;;;;1.77;0.60;;;;;;;;;;5043800;28;20033;-52
2022/05/27 13:34:32;;;;;;;5.95;1.15;;;;;;;;;;5043615;28;20032;-50
2022/05/27 13:37:01;;;;;;;7.28;1.17;;;;;;;;;;5047730;28;20040;-55
2022/05/27 13:39:30;;;;;;;3.08;0.70;;;;;;;;;;5046803;28;20033;-54
2022/05/27 13:41:56;;;;;;;5.53;1.13;;;;;;;;;;5049171;28;20048;-56
2022/05/27 13:44:23;;;;;;;2.92;1.00;;;;;;;;;;5049897;28;20526;-54
2022/05/27 13:46:51;;;;;;;3.83;0.75;;;;;;;;;;5046864;28;20057;-57
2022/05/27 13:49:20;;;;;;;4.00;0.80;;;;;;;;;;5037099;28;20071;-56
2022/05/27 13:51:48;;;;;;;5.43;1.33;;;;;;;;;;5041685;28;20025;-58
2022/05/27 13:54:19;;;;;;;7.43;1.13;;;;;;;;;;5041499;28;20031;-55
2022/05/27 13:56:54;;;;;;;4.10;0.80;;;;;;;;;;5045071;28;20075;-52
2022/05/27 13:59:27;;;;;;;2.78;0.70;;;;;;;;;;5044339;28;20040;-54
2022/05/27 14:01:55;;;;;;;4.88;1.00;;;;;;;;;;5048112;28;20021;-53
2022/05/27 14:04:26;;;;;;;4.68;0.85;;;;;;;;;;5045760;28;20531;-54
2022/05/27 14:06:52;;;;;;;2.42;0.75;;;;;;;;;;5042252;28;20063;-52
2022/05/27 14:09:18;;;;;;;5.43;0.90;;;;;;;;;;5030279;28;20026;-51
2022/05/27 14:11:49;;;;;;;2.95;0.77;;;;;;;;;;5026651;28;20044;-56
2022/05/27 14:14:15;;;;;;;5.80;0.93;;;;;;;;;;5024558;28;20049;-52
2022/05/27 14:16:42;;;;;;;4.78;0.70;;;;;;;;;;5030771;28;20127;-56
2022/05/27 14:19:17;;;;;;;2.72;0.85;;;;;;;;;;5023345;28;20385;-51
2022/05/27 14:24:36;;;;;;;2.90;0.77;;;;;;;;;;5019473;28;20145;-55
2022/05/27 14:27:02;;;;;;;2.35;0.70;;;;;;;;;;5022814;28;20555;-54
2022/05/27 14:29:28;;;;;;;5.30;0.80;;;;;;;;;;5026354;28;20098;-55
2022/05/27 14:32:03;;;;;;;9.27;1.30;;;;;;;;;;5023324;28;20056;-54
2022/05/27 14:34:32;;;;;;;4.00;1.55;;;;;;;;;;5020699;28;20036;-55
2022/05/27 14:37:20;;;;;;;7.43;1.00;;;;;;;;;;5025169;28;20512;-50
2022/05/27 14:39:48;;;;;;;5.43;1.15;;;;;;;;;;5026763;28;20025;-52
2022/05/27 14:42:15;;;;;;;4.68;1.13;;;;;;;;;;5015576;28;20438;-54
2022/05/27 14:44:43;;;;;;;11.02;0.93;;;;;;;;;;5033523;28;20044;-53
2022/05/27 14:47:11;;;;;;;6.55;0.85;;;;;;;;;;5027478;28;20029;-55
2022/05/27 14:49:42;;;;;;;17.45;2.05;;;;;;;;;;5029481;28;20040;-55
2022/05/27 14:52:17;;;;;;;5.28;1.00;;;;;;;;;;5032130;28;20429;-55
2022/05/27 14:54:45;;;;;;;3.00;0.70;;;;;;;;;;5032028;28;20017;-54
2022/05/27 14:57:11;;;;;;;2.35;0.85;;;;;;;;;;5031342;28;20096;-57
2022/05/27 14:59:37;;;;;;;7.28;1.00;;;;;;;;;;5032508;28;20033;-55
2022/05/27 15:02:04;;;;;;;3.85;1.00;;;;;;;;;;5032136;28;20030;-52
2022/05/27 15:04:31;;;;;;;4.68;0.98;;;;;;;;;;5029615;28;20030;-55
2022/05/27 15:06:59;;;;;;;2.88;0.80;;;;;;;;;;5036927;28;20052;-53
2022/05/27 15:09:31;;;;;;;7.05;1.30;;;;;;;;;;5047237;28;20025;-55
2022/05/27 15:12:14;;;;;;;7.72;1.73;;;;;;;;;;5039737;28;20072;-55
2022/05/27 15:14:42;;;;;;;5.38;1.20;;;;;;;;;;5028754;28;20025;-55
2022/05/27 15:17:17;;;;;;;9.50;1.42;;;;;;;;;;5038055;28;20039;-53
2022/05/27 15:19:45;;;;;;;7.10;1.35;;;;;;;;;;5024196;28;20040;-53
2022/05/27 15:22:13;;;;;;;8.00;1.40;;;;;;;;;;5043176;28;20025;-55
2022/05/27 15:24:41;;;;;;;7.28;1.02;;;;;;;;;;5052465;28;20111;-53
2022/05/27 15:35:31;;;;;;;4.30;0.95;;;;;;;;;;5038946;28;20036;-51
2022/05/27 15:37:58;;;;;;;6.22;0.70;;;;;;;;;;5036887;28;20041;-52